createdAt,value
2022-09-07T00:00:39.870Z,99.98
2022-09-07T00:03:06.572Z,100.00
2022-09-07T00:05:33.793Z,100.00
2022-09-07T00:08:00.950Z,100.00
2022-09-07T00:10:27.820Z,100.00
2022-09-07T00:12:54.412Z,100.00
2022-09-07T00:15:20.958Z,100.00
2022-09-07T00:17:47.517Z,100.00
2022-09-07T00:20:15.065Z,100.00
2022-09-07T00:22:41.671Z,100.00
2022-09-07T00:25:08.982Z,100.00
2022-09-07T00:27:35.545Z,100.00
2022-09-07T00:30:02.097Z,100.00
2022-09-07T00:32:28.669Z,100.00
2022-09-07T00:34:55.197Z,100.00
2022-09-07T00:37:21.811Z,100.00
2022-09-07T00:39:49.468Z,100.00
2022-09-07T00:42:19.854Z,100.00
2022-09-07T00:44:58.531Z,100.00
2022-09-07T00:47:27.699Z,100.00
2022-09-07T00:50:00.033Z,100.00
2022-09-07T00:52:29.698Z,100.00
2022-09-07T00:55:01.907Z,100.00
2022-09-07T00:57:29.023Z,100.00
2022-09-07T00:59:57.553Z,100.00
2022-09-07T01:02:25.709Z,100.00
2022-09-07T01:05:04.458Z,100.00
2022-09-07T01:07:33.686Z,100.00
2022-09-07T01:10:00.962Z,100.00
2022-09-07T01:12:27.579Z,100.00
2022-09-07T01:14:55.798Z,100.00
2022-09-07T01:17:35.441Z,100.00
2022-09-07T01:20:20.612Z,100.00
2022-09-07T01:23:02.258Z,100.00
2022-09-07T01:25:40.814Z,100.00
2022-09-07T01:28:13.313Z,100.00
2022-09-07T01:30:49.620Z,100.00
2022-09-07T01:33:23.011Z,100.00
2022-09-07T01:36:01.004Z,100.00
2022-09-07T01:38:36.911Z,100.00
2022-09-07T01:41:11.439Z,100.00
2022-09-07T01:43:54.105Z,100.00
2022-09-07T01:46:52.704Z,100.00
2022-09-07T01:49:35.557Z,100.00
2022-09-07T01:52:14.564Z,100.00
2022-09-07T01:54:46.834Z,100.00
2022-09-07T01:57:19.093Z,100.00
2022-09-07T01:59:55.754Z,100.00
2022-09-07T02:02:29.745Z,100.00
2022-09-07T02:05:20.964Z,100.00
2022-09-07T02:08:00.797Z,100.00
2022-09-07T02:10:56.546Z,100.00
2022-09-07T02:13:31.280Z,100.00
2022-09-07T02:16:03.136Z,100.00
2022-09-07T02:18:34.184Z,100.00
2022-09-07T02:21:03.081Z,100.00
2022-09-07T02:23:37.083Z,100.00
2022-09-07T02:26:07.388Z,100.00
2022-09-07T02:28:36.573Z,100.00
2022-09-07T02:31:03.529Z,100.00
2022-09-07T02:33:30.610Z,100.00
2022-09-07T02:35:57.846Z,100.00
2022-09-07T02:38:25.370Z,100.00
2022-09-07T02:40:53.630Z,100.00
2022-09-07T02:43:22.204Z,100.00
2022-09-07T02:46:07.540Z,100.00
2022-09-07T02:48:42.751Z,100.00
2022-09-07T02:51:24.569Z,100.00
2022-09-07T02:54:15.775Z,100.00
2022-09-07T02:57:14.342Z,100.00
2022-09-07T03:00:09.921Z,100.00
2022-09-07T03:02:54.546Z,100.00
2022-09-07T03:05:29.139Z,100.00
2022-09-07T03:08:10.770Z,100.00
2022-09-07T03:10:39.489Z,100.00
2022-09-07T03:13:06.230Z,100.00
2022-09-07T03:15:32.908Z,100.00
2022-09-07T03:17:59.583Z,100.00
2022-09-07T03:20:26.080Z,100.00
2022-09-07T03:22:52.893Z,100.00
2022-09-07T03:25:19.837Z,100.00
2022-09-07T03:27:46.374Z,100.00
2022-09-07T03:30:13.496Z,100.00
2022-09-07T03:32:40.071Z,100.00
2022-09-07T03:35:08.194Z,100.00
2022-09-07T03:37:38.756Z,100.00
2022-09-07T03:40:07.967Z,100.00
2022-09-07T03:42:34.999Z,100.00
2022-09-07T03:45:01.767Z,100.00
2022-09-07T03:47:28.393Z,100.00
2022-09-07T03:49:54.973Z,100.00
2022-09-07T03:52:21.643Z,100.00
2022-09-07T03:54:48.188Z,100.00
2022-09-07T03:57:14.777Z,100.00
2022-09-07T03:59:41.280Z,100.00
2022-09-07T04:02:07.924Z,100.00
2022-09-07T04:04:34.553Z,100.00
2022-09-07T04:07:01.140Z,100.00
2022-09-07T04:09:27.739Z,100.00
2022-09-07T04:11:54.376Z,100.00
2022-09-07T04:14:20.973Z,100.00
2022-09-07T04:16:47.762Z,100.00
2022-09-07T04:19:14.399Z,100.00
2022-09-07T04:21:40.984Z,100.00
2022-09-07T04:24:07.531Z,100.00
2022-09-07T04:26:35.693Z,100.00
2022-09-07T04:29:03.006Z,100.00
2022-09-07T04:31:30.128Z,100.00
2022-09-07T04:33:56.684Z,100.00
2022-09-07T04:36:24.846Z,100.00
2022-09-07T04:38:56.742Z,100.00
2022-09-07T04:41:23.516Z,100.00
2022-09-07T04:43:53.428Z,100.00
2022-09-07T04:46:22.850Z,100.00
2022-09-07T04:48:55.214Z,100.00
2022-09-07T04:51:23.240Z,100.00
2022-09-07T04:53:51.673Z,100.00
2022-09-07T04:56:19.324Z,100.00
2022-09-07T04:58:46.835Z,100.00
2022-09-07T05:01:19.362Z,100.00
2022-09-07T05:03:46.768Z,100.00
2022-09-07T05:06:14.323Z,100.00
2022-09-07T05:08:49.604Z,100.00
2022-09-07T05:11:16.960Z,100.00
2022-09-07T05:13:43.933Z,100.00
2022-09-07T05:16:14.093Z,100.00
2022-09-07T05:18:41.016Z,99.98
2022-09-07T05:21:22.168Z,99.28
2022-09-07T05:23:51.168Z,98.93
2022-09-07T05:26:18.931Z,98.21
2022-09-07T05:28:45.646Z,96.40
2022-09-07T05:31:19.647Z,95.20
2022-09-07T05:36:39.257Z,95.44
2022-09-07T05:39:07.019Z,94.75
2022-09-07T05:41:33.846Z,94.03
2022-09-07T05:46:46.924Z,93.98
2022-09-07T05:49:13.441Z,93.85
2022-09-07T05:51:40.128Z,93.94
2022-09-07T05:54:06.964Z,94.91
2022-09-07T05:56:36.595Z,96.08
2022-09-07T05:59:03.739Z,95.83
2022-09-07T06:01:30.816Z,95.88
2022-09-07T06:03:57.890Z,96.13
2022-09-07T06:06:24.419Z,95.13
2022-09-07T06:08:53.012Z,95.69
2022-09-07T06:11:22.237Z,96.42
2022-09-07T06:13:49.506Z,97.72
2022-09-07T06:16:18.335Z,97.92
2022-09-07T06:18:47.445Z,97.48
2022-09-07T06:21:19.773Z,97.66
2022-09-07T06:23:47.330Z,97.91
2022-09-07T06:26:14.985Z,99.24
2022-09-07T06:28:43.715Z,98.42
2022-09-07T06:31:16.246Z,97.30
2022-09-07T06:33:50.454Z,96.27
2022-09-07T06:36:20.946Z,96.39
2022-09-07T06:38:48.628Z,95.46
2022-09-07T06:44:12.297Z,92.76
2022-09-07T06:49:26.115Z,90.54
2022-09-07T06:51:52.667Z,89.63
2022-09-07T06:57:09.074Z,89.98
2022-09-07T06:59:36.658Z,89.82
2022-09-07T07:02:03.714Z,92.35
2022-09-07T07:04:30.274Z,91.87
2022-09-07T07:06:56.870Z,90.46
2022-09-07T07:09:23.429Z,89.07
2022-09-07T07:11:50.264Z,89.62
2022-09-07T07:14:18.004Z,91.17
2022-09-07T07:16:44.807Z,94.36
2022-09-07T07:19:11.570Z,94.89
2022-09-07T07:22:03.477Z,96.09
2022-09-07T07:24:24.638Z,99.69
2022-09-07T07:26:51.234Z,100.00
2022-09-07T07:29:18.871Z,100.00
2022-09-07T07:31:47.063Z,100.00
2022-09-07T07:34:14.005Z,100.00
2022-09-07T07:36:40.626Z,100.00
2022-09-07T07:39:07.173Z,100.00
2022-09-07T07:44:20.933Z,100.00
2022-09-07T07:46:49.393Z,100.00
2022-09-07T07:49:16.081Z,100.00
2022-09-07T07:54:29.323Z,100.00
2022-09-07T07:56:55.844Z,100.00
2022-09-07T07:59:22.330Z,100.00
2022-09-07T08:01:49.238Z,100.00
2022-09-07T08:04:15.829Z,100.00
2022-09-07T08:06:42.606Z,100.00
2022-09-07T08:09:09.375Z,100.00
2022-09-07T08:11:35.855Z,100.00
2022-09-07T08:14:05.895Z,100.00
2022-09-07T08:16:34.127Z,100.00
2022-09-07T08:19:01.645Z,100.00
2022-09-07T08:21:28.227Z,100.00
2022-09-07T08:23:55.760Z,100.00
2022-09-07T08:26:22.711Z,100.00
2022-09-07T08:28:49.402Z,100.00
2022-09-07T08:31:17.118Z,100.00
2022-09-07T08:33:43.968Z,100.00
2022-09-07T08:36:19.160Z,100.00
2022-09-07T08:38:46.058Z,100.00
2022-09-07T08:41:30.683Z,100.00
2022-09-07T08:44:10.794Z,100.00
2022-09-07T08:47:21.874Z,100.00
2022-09-07T08:49:56.236Z,100.00
2022-09-07T08:52:26.377Z,100.00
2022-09-07T08:55:03.947Z,100.00
2022-09-07T08:57:35.391Z,100.00
2022-09-07T09:00:07.700Z,100.00
2022-09-07T09:02:42.437Z,100.00
2022-09-07T09:05:41.235Z,100.00
2022-09-07T09:08:29.040Z,100.00
2022-09-07T09:11:05.965Z,100.00
2022-09-07T09:13:55.092Z,100.00
2022-09-07T09:16:44.287Z,100.00
2022-09-07T09:19:25.775Z,100.00
2022-09-07T09:22:08.521Z,98.10
2022-09-07T09:24:38.496Z,95.90
2022-09-07T09:27:05.144Z,94.88
2022-09-07T09:29:34.015Z,93.07
2022-09-07T09:32:20.524Z,91.05
2022-09-07T09:35:06.383Z,94.40
2022-09-07T09:37:37.351Z,95.47
2022-09-07T09:40:06.693Z,95.61
2022-09-07T09:42:35.366Z,95.48
2022-09-07T09:45:06.127Z,92.85
2022-09-07T09:47:36.083Z,89.86
2022-09-07T09:52:29.175Z,89.88
2022-09-07T09:53:06.130Z,92.17
2022-09-07T09:55:36.480Z,90.63
2022-09-07T10:01:27.094Z,86.82
2022-09-07T10:06:25.292Z,84.85
2022-09-07T10:08:58.031Z,83.95
2022-09-07T10:12:11.099Z,86.62
2022-09-07T10:14:46.756Z,85.06
2022-09-07T10:17:31.958Z,83.98
2022-09-07T10:20:16.036Z,84.83
2022-09-07T10:22:50.906Z,80.27
2022-09-07T10:25:37.819Z,81.68
2022-09-07T10:28:04.347Z,81.99
2022-09-07T10:30:41.941Z,82.67
2022-09-07T10:33:20.774Z,81.41
2022-09-07T10:36:03.103Z,82.71
2022-09-07T10:38:36.675Z,82.05
2022-09-07T10:41:07.481Z,81.54
2022-09-07T10:43:45.664Z,82.54
2022-09-07T10:46:58.237Z,79.57
2022-09-07T10:49:25.228Z,81.40
2022-09-07T10:52:13.916Z,82.50
2022-09-07T10:54:47.437Z,86.72
2022-09-07T10:57:39.340Z,85.12
2022-09-07T11:00:12.514Z,83.76
2022-09-07T11:03:25.348Z,87.61
2022-09-07T11:05:54.882Z,83.28
2022-09-07T11:08:24.344Z,82.94
2022-09-07T11:11:02.098Z,81.51
2022-09-07T11:13:49.482Z,82.51
2022-09-07T11:19:52.551Z,70.92
2022-09-07T11:22:28.065Z,70.29
2022-09-07T11:25:31.064Z,68.16
2022-09-07T11:28:23.209Z,65.59
2022-09-07T11:31:00.238Z,66.24
2022-09-07T11:37:09.299Z,70.86
2022-09-07T11:39:45.026Z,67.90
2022-09-07T11:45:30.295Z,64.06
2022-09-07T11:48:19.511Z,66.38
2022-09-07T11:50:52.007Z,68.51
2022-09-07T11:53:22.632Z,65.30
2022-09-07T11:55:56.329Z,62.57
2022-09-07T11:59:00.477Z,65.04
2022-09-07T12:01:57.957Z,63.90
2022-09-07T12:04:40.444Z,62.77
2022-09-07T12:07:17.539Z,63.39
2022-09-07T12:09:58.165Z,64.13
2022-09-07T12:12:43.648Z,64.04
2022-09-07T12:15:32.777Z,62.42
2022-09-07T12:18:04.385Z,62.12
2022-09-07T12:20:44.442Z,62.22
2022-09-07T12:23:16.953Z,64.48
2022-09-07T12:25:45.717Z,65.42
2022-09-07T12:28:21.880Z,63.31
2022-09-07T12:30:55.746Z,62.99
2022-09-07T12:33:28.373Z,61.21
2022-09-07T12:35:57.942Z,62.51
2022-09-07T12:38:30.253Z,62.60
2022-09-07T12:41:20.259Z,63.74
2022-09-07T12:44:04.425Z,61.20
2022-09-07T12:46:34.692Z,60.78
2022-09-07T12:49:01.689Z,63.72
2022-09-07T12:54:38.218Z,64.32
2022-09-07T12:57:41.167Z,60.99
2022-09-07T13:00:20.732Z,60.84
2022-09-07T13:02:56.864Z,61.70
2022-09-07T13:06:00.980Z,60.18
2022-09-07T13:08:39.623Z,59.69
2022-09-07T13:11:27.511Z,59.68
2022-09-07T13:14:04.742Z,62.43
2022-09-07T13:17:16.038Z,62.57
2022-09-07T13:19:46.454Z,63.79
2022-09-07T13:22:31.280Z,61.73
2022-09-07T13:25:21.083Z,60.46
2022-09-07T13:28:03.060Z,59.64
2022-09-07T13:30:38.437Z,59.90
2022-09-07T13:33:34.536Z,62.45
2022-09-07T13:36:03.523Z,62.88
2022-09-07T13:38:32.933Z,62.03
2022-09-07T13:41:17.719Z,62.58
2022-09-07T13:43:49.310Z,65.52
2022-09-07T13:46:49.052Z,67.22
2022-09-07T13:49:37.080Z,70.56
2022-09-07T13:52:18.112Z,69.96
2022-09-07T13:55:31.662Z,68.79
2022-09-07T13:58:11.643Z,70.71
2022-09-07T14:00:54.111Z,67.98
2022-09-07T14:03:22.531Z,68.52
2022-09-07T14:05:49.070Z,68.66
2022-09-07T14:08:29.601Z,71.17
2022-09-07T14:10:56.086Z,71.62
2022-09-07T14:13:22.607Z,73.36
2022-09-07T14:15:50.395Z,72.65
2022-09-07T14:18:30.250Z,70.29
2022-09-07T14:20:59.275Z,73.41
2022-09-07T14:23:32.773Z,69.91
2022-09-07T14:26:19.267Z,70.30
2022-09-07T14:29:03.778Z,71.54
2022-09-07T14:31:31.254Z,71.37
2022-09-07T14:34:00.357Z,67.56
2022-09-07T14:36:45.318Z,68.61
2022-09-07T14:39:15.183Z,70.25
2022-09-07T14:41:43.208Z,70.36
2022-09-07T14:44:33.631Z,70.22
2022-09-07T14:47:20.472Z,69.22
2022-09-07T14:49:55.944Z,68.44
2022-09-07T14:52:36.711Z,67.40
2022-09-07T14:55:19.277Z,68.13
2022-09-07T14:57:45.842Z,66.21
2022-09-07T15:00:20.950Z,66.24
2022-09-07T15:02:47.468Z,70.03
2022-09-07T15:05:20.589Z,68.35
2022-09-07T15:07:59.510Z,69.84
2022-09-07T15:10:28.334Z,68.89
2022-09-07T15:12:57.600Z,68.27
2022-09-07T15:15:33.875Z,68.72
2022-09-07T15:18:08.541Z,71.15
2022-09-07T15:20:38.641Z,71.90
2022-09-07T15:23:12.611Z,72.65
2022-09-07T15:25:40.726Z,72.92
2022-09-07T15:28:07.853Z,72.18
2022-09-07T15:30:34.820Z,72.12
2022-09-07T15:33:01.481Z,74.43
2022-09-07T15:35:28.019Z,71.18
2022-09-07T15:38:02.872Z,70.00
2022-09-07T15:40:56.225Z,70.94
2022-09-07T15:43:28.563Z,72.13
2022-09-07T15:45:55.340Z,70.96
2022-09-07T15:48:25.317Z,69.86
2022-09-07T15:50:59.813Z,69.67
2022-09-07T15:56:13.383Z,69.40
2022-09-07T15:58:40.113Z,69.84
2022-09-07T16:03:54.571Z,70.64
2022-09-07T16:06:22.466Z,73.09
2022-09-07T16:08:51.502Z,73.25
2022-09-07T16:11:24.309Z,73.67
2022-09-07T16:14:02.169Z,71.96
2022-09-07T16:19:22.226Z,74.26
2022-09-07T16:21:48.890Z,73.55
2022-09-07T16:24:17.240Z,74.68
2022-09-07T16:26:43.753Z,75.47
2022-09-07T16:29:10.326Z,76.76
2022-09-07T16:31:37.148Z,76.04
2022-09-07T16:34:04.109Z,79.23
2022-09-07T16:36:30.827Z,79.25
2022-09-07T16:38:59.643Z,78.48
2022-09-07T16:41:29.310Z,78.36
2022-09-07T16:43:56.195Z,76.09
2022-09-07T16:46:26.494Z,77.50
2022-09-07T16:48:53.574Z,76.67
2022-09-07T16:51:21.827Z,77.29
2022-09-07T16:53:50.293Z,76.54
2022-09-07T16:56:19.469Z,76.42
2022-09-07T16:58:57.466Z,75.53
2022-09-07T17:01:27.189Z,76.17
2022-09-07T17:03:54.005Z,75.95
2022-09-07T17:06:23.547Z,76.62
2022-09-07T17:08:50.507Z,76.33
2022-09-07T17:11:29.746Z,77.15
2022-09-07T17:13:57.993Z,78.05
2022-09-07T17:16:35.502Z,79.19
2022-09-07T17:21:53.734Z,80.26
2022-09-07T17:24:21.185Z,80.90
2022-09-07T17:26:48.324Z,81.60
2022-09-07T17:29:15.178Z,82.56
2022-09-07T17:34:29.932Z,83.48
2022-09-07T17:36:56.495Z,85.46
2022-09-07T17:39:23.483Z,85.43
2022-09-07T17:41:54.299Z,86.73
2022-09-07T17:44:23.185Z,87.56
2022-09-07T17:46:49.907Z,87.11
2022-09-07T17:49:16.917Z,87.33
2022-09-07T17:51:44.729Z,88.26
2022-09-07T17:54:16.603Z,88.23
2022-09-07T17:56:44.626Z,89.57
2022-09-07T18:01:58.737Z,88.80
2022-09-07T18:04:25.847Z,90.71
2022-09-07T18:06:54.116Z,91.19
2022-09-07T18:09:20.653Z,91.47
2022-09-07T18:11:49.047Z,92.81
2022-09-07T18:14:16.585Z,93.12
2022-09-07T18:16:44.957Z,94.45
2022-09-07T18:19:12.409Z,94.55
2022-09-07T18:21:40.936Z,91.51
2022-09-07T18:24:20.698Z,90.70
2022-09-07T18:26:50.616Z,90.66
2022-09-07T18:29:31.193Z,91.05
2022-09-07T18:32:01.165Z,91.06
2022-09-07T18:34:28.978Z,89.03
2022-09-07T18:36:55.827Z,87.84
2022-09-07T18:39:22.742Z,87.04
2022-09-07T18:41:49.233Z,86.96
2022-09-07T18:47:02.396Z,88.80
2022-09-07T18:49:28.872Z,89.32
2022-09-07T18:54:41.866Z,90.56
2022-09-07T18:57:08.684Z,91.54
2022-09-07T18:59:35.347Z,90.69
2022-09-07T19:02:04.855Z,91.07
2022-09-07T19:07:20.518Z,91.46
2022-09-07T19:09:48.132Z,91.19
2022-09-07T19:12:15.090Z,91.39
2022-09-07T19:14:42.226Z,90.99
2022-09-07T19:17:10.936Z,90.22
2022-09-07T19:19:38.717Z,90.93
2022-09-07T19:22:05.986Z,92.12
2022-09-07T19:24:33.175Z,92.14
2022-09-07T19:27:00.838Z,90.57
2022-09-07T19:29:28.040Z,89.83
2022-09-07T19:32:07.805Z,89.32
2022-09-07T19:34:45.531Z,89.89
2022-09-07T19:37:13.259Z,91.48
2022-09-07T19:39:39.838Z,93.39
2022-09-07T19:42:07.048Z,93.24
2022-09-07T19:44:34.010Z,93.18
2022-09-07T19:47:00.838Z,93.39
2022-09-07T19:49:28.202Z,92.64
2022-09-07T19:51:54.817Z,93.26
2022-09-07T19:54:21.451Z,94.03
2022-09-07T19:56:47.944Z,94.63
2022-09-07T19:59:14.619Z,95.54
2022-09-07T20:01:45.953Z,95.43
2022-09-07T20:04:19.678Z,94.70
2022-09-07T20:06:48.070Z,95.43
2022-09-07T20:09:14.641Z,96.51
2022-09-07T20:11:46.073Z,97.88
2022-09-07T20:14:13.745Z,99.01
2022-09-07T20:16:41.681Z,99.57
2022-09-07T20:19:08.445Z,98.04
2022-09-07T20:21:36.869Z,97.28
2022-09-07T20:24:03.964Z,96.31
2022-09-07T20:26:32.230Z,97.68
2022-09-07T20:29:16.766Z,99.05
2022-09-07T20:31:46.839Z,99.34
2022-09-07T20:34:13.662Z,99.07
2022-09-07T20:36:40.514Z,98.82
2022-09-07T20:39:07.080Z,99.73
2022-09-07T20:41:34.284Z,100.00
2022-09-07T20:44:02.686Z,100.00
2022-09-07T20:46:30.276Z,100.00
2022-09-07T20:48:57.259Z,99.10
2022-09-07T20:51:23.847Z,99.96
2022-09-07T20:53:50.906Z,100.00
2022-09-07T20:56:18.740Z,100.00
2022-09-07T20:58:46.646Z,100.00
2022-09-07T21:01:15.704Z,100.00
2022-09-07T21:03:54.244Z,100.00
2022-09-07T21:06:22.453Z,100.00
2022-09-07T21:08:49.886Z,100.00
2022-09-07T21:11:22.848Z,99.88
2022-09-07T21:13:59.260Z,100.00
2022-09-07T21:16:26.211Z,100.00
2022-09-07T21:18:55.268Z,100.00
2022-09-07T21:21:23.191Z,100.00
2022-09-07T21:23:55.715Z,100.00
2022-09-07T21:26:23.143Z,100.00
2022-09-07T21:29:01.541Z,100.00
2022-09-07T21:31:29.861Z,100.00
2022-09-07T21:33:58.693Z,100.00
2022-09-07T21:36:25.985Z,100.00
2022-09-07T21:38:53.046Z,100.00
2022-09-07T21:41:21.260Z,100.00
2022-09-07T21:43:47.727Z,100.00
2022-09-07T21:46:17.414Z,100.00
2022-09-07T21:48:45.557Z,100.00
2022-09-07T21:51:13.608Z,100.00
2022-09-07T21:53:40.722Z,100.00
2022-09-07T21:56:11.146Z,100.00
2022-09-07T21:58:38.503Z,100.00
2022-09-07T22:01:12.504Z,100.00
2022-09-07T22:03:40.384Z,100.00
2022-09-07T22:06:08.317Z,100.00
2022-09-07T22:08:36.304Z,100.00
2022-09-07T22:11:09.366Z,100.00
2022-09-07T22:13:36.537Z,100.00
2022-09-07T22:16:04.461Z,100.00
2022-09-07T22:18:31.569Z,100.00
2022-09-07T22:21:12.774Z,100.00
2022-09-07T22:23:42.641Z,100.00
2022-09-07T22:26:09.758Z,100.00
2022-09-07T22:28:37.087Z,100.00
2022-09-07T22:31:12.454Z,100.00
2022-09-07T22:33:40.007Z,100.00
2022-09-07T22:36:11.413Z,100.00
2022-09-07T22:38:38.745Z,100.00
2022-09-07T22:41:10.468Z,100.00
2022-09-07T22:43:37.005Z,100.00
2022-09-07T22:46:03.986Z,100.00
2022-09-07T22:48:30.643Z,100.00
2022-09-07T22:50:58.941Z,100.00
2022-09-07T22:53:30.351Z,100.00
2022-09-07T22:55:57.246Z,100.00
2022-09-07T22:58:23.893Z,100.00
2022-09-07T23:00:51.466Z,100.00
2022-09-07T23:03:18.521Z,100.00
2022-09-07T23:05:45.000Z,100.00
2022-09-07T23:08:11.877Z,100.00
2022-09-07T23:10:39.084Z,100.00
2022-09-07T23:13:05.929Z,100.00
2022-09-07T23:15:35.937Z,100.00
2022-09-07T23:18:02.383Z,100.00
2022-09-07T23:20:28.961Z,100.00
2022-09-07T23:22:55.443Z,100.00
2022-09-07T23:25:22.658Z,100.00
2022-09-07T23:27:49.117Z,100.00
2022-09-07T23:30:15.658Z,100.00
2022-09-07T23:32:42.272Z,100.00
2022-09-07T23:35:11.690Z,100.00
2022-09-07T23:37:40.173Z,100.00
2022-09-07T23:40:08.560Z,100.00
2022-09-07T23:42:35.094Z,100.00
2022-09-07T23:45:01.549Z,100.00
2022-09-07T23:47:28.054Z,100.00
2022-09-07T23:49:54.582Z,100.00
2022-09-07T23:52:21.075Z,100.00
2022-09-07T23:54:47.561Z,100.00
2022-09-07T23:57:14.103Z,100.00
2022-09-07T23:59:40.596Z,100.00
